Time;durP1;ratioP1;P1;durP2;ratioP2;P2;SDS_P1;SDS_P2;PMS_P1;PMS_P2;Temp;Humidity;BMP_temperature;BMP_pressure;BME280_temperature;BME280_humidity;BME280_pressure;Samples;Min_cycle;Max_cycle;Signal;HPM_P1;HPM_P2
2022/11/07 00:02:06;;;;;;;10.30;4.15;;;;;;;;;;5100457;28;20060;-81
2022/11/07 00:04:33;;;;;;;9.70;4.20;;;;;;;;;;5111493;27;20056;-83
2022/11/07 00:06:59;;;;;;;9.75;4.30;;;;;;;;;;5110357;28;20498;-82
2022/11/07 00:09:26;;;;;;;8.77;4.35;;;;;;;;;;5093692;28;20029;-81
2022/11/07 00:11:52;;;;;;;9.77;4.10;;;;;;;;;;5107388;28;20044;-81
2022/11/07 00:14:18;;;;;;;10.15;4.00;;;;;;;;;;5110283;28;20507;-81
2022/11/07 00:16:45;;;;;;;12.35;3.78;;;;;;;;;;5110626;28;20479;-81
2022/11/07 00:19:14;;;;;;;10.93;4.15;;;;;;;;;;5112868;27;20055;-81
2022/11/07 00:21:40;;;;;;;9.55;4.00;;;;;;;;;;5110426;28;20060;-83
2022/11/07 00:24:07;;;;;;;14.02;4.22;;;;;;;;;;5109826;28;20052;-81
2022/11/07 00:26:34;;;;;;;7.05;3.58;;;;;;;;;;5108642;28;20052;-81
2022/11/07 00:29:01;;;;;;;13.65;3.85;;;;;;;;;;5111126;27;20092;-82
2022/11/07 00:31:27;;;;;;;10.07;3.83;;;;;;;;;;5106095;28;20056;-82
2022/11/07 00:33:53;;;;;;;10.50;3.50;;;;;;;;;;5110876;28;20051;-81
2022/11/07 00:36:21;;;;;;;13.43;3.88;;;;;;;;;;5110185;28;20052;-82
2022/11/07 00:38:47;;;;;;;11.05;3.75;;;;;;;;;;5109627;28;20063;-81
2022/11/07 00:41:13;;;;;;;10.05;3.67;;;;;;;;;;5103250;27;20053;-82
2022/11/07 00:43:40;;;;;;;10.27;3.97;;;;;;;;;;5111634;28;20044;-82
2022/11/07 00:46:07;;;;;;;7.30;3.40;;;;;;;;;;5100220;28;20056;-81
2022/11/07 00:48:33;;;;;;;10.55;3.75;;;;;;;;;;5109821;28;20063;-82
2022/11/07 00:51:04;;;;;;;9.18;3.97;;;;;;;;;;5109392;28;20070;-82
2022/11/07 00:53:30;;;;;;;9.27;3.75;;;;;;;;;;5108582;27;20056;-82
2022/11/07 00:56:03;;;;;;;10.65;3.58;;;;;;;;;;5109411;27;20199;-82
2022/11/07 00:58:29;;;;;;;7.18;3.63;;;;;;;;;;5109522;28;20056;-82
2022/11/07 01:00:56;;;;;;;10.20;3.53;;;;;;;;;;5104845;28;20064;-81
2022/11/07 01:06:07;;;;;;;9.40;3.20;;;;;;;;;;5108660;28;20063;-81
2022/11/07 01:08:34;;;;;;;6.82;3.08;;;;;;;;;;5095198;28;20053;-81
2022/11/07 01:11:02;;;;;;;13.18;3.53;;;;;;;;;;5100849;28;20051;-82
2022/11/07 01:13:29;;;;;;;10.90;3.38;;;;;;;;;;5108563;28;20064;-82
2022/11/07 01:15:55;;;;;;;8.18;3.13;;;;;;;;;;5103720;28;20053;-82
2022/11/07 01:18:21;;;;;;;12.85;3.15;;;;;;;;;;5087810;28;20498;-82
2022/11/07 01:20:48;;;;;;;14.73;4.13;;;;;;;;;;5095800;28;20060;-80
2022/11/07 01:23:15;;;;;;;8.00;3.38;;;;;;;;;;5099892;27;20067;-81
2022/11/07 01:25:41;;;;;;;9.15;3.38;;;;;;;;;;5108840;28;20060;-81
2022/11/07 01:28:08;;;;;;;9.10;3.53;;;;;;;;;;5108716;28;20052;-82
2022/11/07 01:30:39;;;;;;;8.88;3.33;;;;;;;;;;5106446;28;20052;-82
2022/11/07 01:33:05;;;;;;;10.60;3.53;;;;;;;;;;5108844;27;20091;-82
2022/11/07 01:35:32;;;;;;;9.70;2.88;;;;;;;;;;5106066;28;20060;-83
2022/11/07 01:37:59;;;;;;;11.27;3.20;;;;;;;;;;5098413;28;20060;-82
2022/11/07 01:40:26;;;;;;;13.40;3.10;;;;;;;;;;5098986;28;20078;-82
2022/11/07 01:42:53;;;;;;;10.73;3.50;;;;;;;;;;5096109;28;20053;-82
2022/11/07 01:45:24;;;;;;;10.02;3.10;;;;;;;;;;5091006;28;20064;-81
2022/11/07 01:47:51;;;;;;;9.15;2.60;;;;;;;;;;5109404;27;20052;-82
2022/11/07 01:50:18;;;;;;;14.88;2.92;;;;;;;;;;5103879;27;20079;-80
2022/11/07 01:52:46;;;;;;;9.50;3.53;;;;;;;;;;5092455;27;20052;-81
2022/11/07 01:55:20;;;;;;;8.20;2.72;;;;;;;;;;5089200;28;20097;-80
2022/11/07 01:57:53;;;;;;;11.18;3.30;;;;;;;;;;5087143;28;20059;-81
2022/11/07 02:00:21;;;;;;;8.23;2.80;;;;;;;;;;5101910;28;20059;-81
2022/11/07 02:02:49;;;;;;;9.50;2.53;;;;;;;;;;5108348;27;20091;-81
2022/11/07 02:05:36;;;;;;;9.95;3.00;;;;;;;;;;5106622;28;20039;-80
2022/11/07 02:08:04;;;;;;;7.90;2.40;;;;;;;;;;5122266;27;20056;-80
2022/11/07 02:10:31;;;;;;;6.97;2.30;;;;;;;;;;5106361;28;20579;-81
2022/11/07 02:12:58;;;;;;;8.18;2.50;;;;;;;;;;5107515;28;20063;-80
2022/11/07 02:15:25;;;;;;;12.82;2.40;;;;;;;;;;5109473;28;20051;-80
2022/11/07 02:17:52;;;;;;;10.70;2.40;;;;;;;;;;5108608;27;20055;-80
2022/11/07 02:20:18;;;;;;;10.00;2.70;;;;;;;;;;5106424;27;20059;-81
2022/11/07 02:22:50;;;;;;;10.85;2.78;;;;;;;;;;5105500;28;20481;-81
2022/11/07 02:25:18;;;;;;;11.10;3.42;;;;;;;;;;5107105;28;20525;-81
2022/11/07 02:27:46;;;;;;;11.18;3.03;;;;;;;;;;5104246;28;20798;-81
2022/11/07 02:30:14;;;;;;;9.18;2.72;;;;;;;;;;5106089;28;20870;-81
2022/11/07 02:32:40;;;;;;;10.07;3.05;;;;;;;;;;5106489;28;20060;-82
2022/11/07 02:35:26;;;;;;;8.38;2.70;;;;;;;;;;5096836;28;20067;-81
2022/11/07 02:37:52;;;;;;;11.65;3.17;;;;;;;;;;5089143;28;20048;-80
2022/11/07 02:40:19;;;;;;;15.48;3.30;;;;;;;;;;5105917;27;20141;-81
2022/11/07 02:42:46;;;;;;;6.80;3.05;;;;;;;;;;5109404;27;20055;-80
2022/11/07 02:45:15;;;;;;;9.60;3.17;;;;;;;;;;5108647;27;20067;-79
2022/11/07 02:47:41;;;;;;;9.68;2.97;;;;;;;;;;5108898;28;20064;-81
2022/11/07 02:50:08;;;;;;;7.78;2.88;;;;;;;;;;5112088;28;20114;-81
2022/11/07 02:52:35;;;;;;;6.40;3.00;;;;;;;;;;5111357;28;20060;-81
2022/11/07 02:55:01;;;;;;;9.82;3.30;;;;;;;;;;5110774;28;20059;-81
2022/11/07 02:57:28;;;;;;;9.05;3.50;;;;;;;;;;5111063;28;20056;-81
2022/11/07 02:59:54;;;;;;;9.52;3.20;;;;;;;;;;5103853;28;20899;-81
2022/11/07 03:02:20;;;;;;;9.82;3.33;;;;;;;;;;5107660;27;20056;-81
2022/11/07 03:04:47;;;;;;;12.27;3.50;;;;;;;;;;5109514;28;20152;-80
2022/11/07 03:07:14;;;;;;;11.55;3.83;;;;;;;;;;5109598;28;20087;-81
2022/11/07 03:09:40;;;;;;;12.75;3.63;;;;;;;;;;5107760;28;20048;-81
2022/11/07 03:12:07;;;;;;;10.63;3.47;;;;;;;;;;5108185;28;20060;-81
2022/11/07 03:14:33;;;;;;;9.93;3.30;;;;;;;;;;5111447;28;20538;-81
2022/11/07 03:16:59;;;;;;;7.35;3.50;;;;;;;;;;5097174;28;20083;-81
2022/11/07 03:19:25;;;;;;;8.98;4.07;;;;;;;;;;5104737;28;20056;-80
2022/11/07 03:21:52;;;;;;;9.07;3.25;;;;;;;;;;5109132;28;20056;-80
2022/11/07 03:24:18;;;;;;;7.72;3.20;;;;;;;;;;5109230;28;20536;-80
2022/11/07 03:26:44;;;;;;;12.38;3.47;;;;;;;;;;5109462;28;20063;-80
2022/11/07 03:29:10;;;;;;;15.73;3.58;;;;;;;;;;5109006;28;20048;-80
2022/11/07 03:31:37;;;;;;;13.15;3.58;;;;;;;;;;5108162;28;20059;-80
2022/11/07 03:34:03;;;;;;;13.55;3.72;;;;;;;;;;5108735;28;20063;-82
2022/11/07 03:36:30;;;;;;;15.48;3.63;;;;;;;;;;5108814;28;20060;-81
2022/11/07 03:38:56;;;;;;;13.20;3.50;;;;;;;;;;5102619;28;20048;-80
2022/11/07 03:41:22;;;;;;;11.07;3.08;;;;;;;;;;5108159;28;20078;-81
2022/11/07 03:43:48;;;;;;;9.75;2.78;;;;;;;;;;5109302;28;20047;-80
2022/11/07 03:46:15;;;;;;;11.52;3.40;;;;;;;;;;5108874;28;20052;-82
2022/11/07 03:48:42;;;;;;;15.13;3.08;;;;;;;;;;5107559;28;20060;-80
2022/11/07 03:51:09;;;;;;;14.25;2.85;;;;;;;;;;5107902;28;20056;-80
2022/11/07 03:53:38;;;;;;;16.58;3.50;;;;;;;;;;5109080;28;20056;-81
2022/11/07 03:56:09;;;;;;;7.78;2.70;;;;;;;;;;5108943;28;20059;-80
2022/11/07 03:58:36;;;;;;;10.25;2.40;;;;;;;;;;5107869;27;20056;-82
2022/11/07 04:01:02;;;;;;;12.68;2.70;;;;;;;;;;5109829;27;20055;-80
2022/11/07 04:03:29;;;;;;;8.70;2.50;;;;;;;;;;5108761;27;20059;-81
2022/11/07 04:06:37;;;;;;;9.60;2.85;;;;;;;;;;5208992;27;20379;-81
2022/11/07 04:09:04;;;;;;;11.98;3.78;;;;;;;;;;5185785;27;20054;-80
2022/11/07 04:17:18;;;;;;;10.30;3.22;;;;;;;;;;5191522;27;20103;-81
2022/11/07 04:19:49;;;;;;;11.98;3.30;;;;;;;;;;5181778;27;20165;-81
2022/11/07 04:22:16;;;;;;;14.68;3.25;;;;;;;;;;5188094;27;20670;-80
2022/11/07 04:24:42;;;;;;;13.10;3.40;;;;;;;;;;5174151;27;20050;-80
2022/11/07 04:29:56;;;;;;;9.40;3.22;;;;;;;;;;5209412;27;20046;-81
2022/11/07 04:32:23;;;;;;;13.73;4.50;;;;;;;;;;5173145;27;20963;-83
2022/11/07 04:34:50;;;;;;;11.77;3.42;;;;;;;;;;5202833;27;20278;-81
2022/11/07 04:37:17;;;;;;;11.98;3.33;;;;;;;;;;5195073;27;20054;-82
2022/11/07 04:39:43;;;;;;;13.40;3.15;;;;;;;;;;5190899;27;20083;-82
2022/11/07 04:42:09;;;;;;;14.30;3.28;;;;;;;;;;5213295;27;20147;-82
2022/11/07 04:44:36;;;;;;;15.32;3.28;;;;;;;;;;5181072;27;20042;-82
2022/11/07 04:47:02;;;;;;;14.50;3.40;;;;;;;;;;5204575;27;20054;-82
2022/11/07 04:49:28;;;;;;;13.07;3.28;;;;;;;;;;5177283;27;20059;-81
2022/11/07 04:51:56;;;;;;;11.77;3.45;;;;;;;;;;5184971;27;20361;-82
2022/11/07 04:54:22;;;;;;;13.90;3.40;;;;;;;;;;5215063;27;20054;-81
2022/11/07 04:56:48;;;;;;;12.77;3.10;;;;;;;;;;5177040;27;20043;-81
2022/11/07 04:59:15;;;;;;;16.58;3.53;;;;;;;;;;5192723;27;20049;-82
2022/11/07 05:01:41;;;;;;;16.27;3.17;;;;;;;;;;5179375;27;20053;-82
2022/11/07 05:04:07;;;;;;;16.50;3.75;;;;;;;;;;5168717;27;20081;-82
2022/11/07 05:06:34;;;;;;;15.52;3.38;;;;;;;;;;5189079;27;20090;-82
2022/11/07 05:09:01;;;;;;;13.77;2.92;;;;;;;;;;5211453;27;20053;-82
2022/11/07 05:11:27;;;;;;;14.68;3.50;;;;;;;;;;5208267;27;20054;-82
2022/11/07 05:13:54;;;;;;;16.48;3.33;;;;;;;;;;5169711;27;20051;-82
2022/11/07 05:16:20;;;;;;;21.98;3.88;;;;;;;;;;5167078;27;20051;-82
2022/11/07 05:18:46;;;;;;;13.43;2.65;;;;;;;;;;5156903;27;20065;-82
2022/11/07 05:21:13;;;;;;;13.70;3.25;;;;;;;;;;5154990;27;20791;-82
2022/11/07 05:23:39;;;;;;;10.85;3.67;;;;;;;;;;5171773;27;20047;-82
2022/11/07 05:26:05;;;;;;;16.48;3.35;;;;;;;;;;5182525;27;20604;-82
2022/11/07 05:28:32;;;;;;;19.88;3.08;;;;;;;;;;5172936;27;20054;-82
2022/11/07 05:31:05;;;;;;;13.52;3.55;;;;;;;;;;5157875;27;20085;-82
2022/11/07 05:33:32;;;;;;;16.27;3.35;;;;;;;;;;5154170;27;20059;-82
2022/11/07 05:36:08;;;;;;;13.13;3.20;;;;;;;;;;5186505;27;20803;-82
2022/11/07 05:38:35;;;;;;;8.48;2.95;;;;;;;;;;5175841;27;20050;-82
2022/11/07 05:41:02;;;;;;;15.35;3.10;;;;;;;;;;5173213;27;20050;-82
2022/11/07 05:43:29;;;;;;;14.90;2.60;;;;;;;;;;5172844;27;20452;-81
2022/11/07 05:45:58;;;;;;;14.05;3.10;;;;;;;;;;5160387;27;20529;-81
2022/11/07 05:48:25;;;;;;;15.20;3.60;;;;;;;;;;5154797;27;20051;-81
2022/11/07 05:50:51;;;;;;;18.17;2.88;;;;;;;;;;5190139;27;20054;-80
2022/11/07 05:53:20;;;;;;;14.52;3.08;;;;;;;;;;5173242;27;20058;-83
2022/11/07 05:55:48;;;;;;;13.63;2.85;;;;;;;;;;5155818;27;20062;-80
2022/11/07 05:58:15;;;;;;;22.05;3.63;;;;;;;;;;5173010;27;20901;-81
2022/11/07 06:00:41;;;;;;;15.07;3.72;;;;;;;;;;5156584;27;20054;-81
2022/11/07 06:03:07;;;;;;;16.45;2.97;;;;;;;;;;5167630;27;20533;-80
2022/11/07 06:05:35;;;;;;;14.02;3.45;;;;;;;;;;5175198;27;20062;-81
2022/11/07 06:08:02;;;;;;;11.38;2.97;;;;;;;;;;5158184;27;20062;-80
2022/11/07 06:10:28;;;;;;;14.77;3.10;;;;;;;;;;5184762;27;20051;-81
2022/11/07 06:13:01;;;;;;;14.27;3.00;;;;;;;;;;5153454;27;20054;-81
2022/11/07 06:15:28;;;;;;;19.38;3.30;;;;;;;;;;5176905;27;20054;-80
2022/11/07 06:17:57;;;;;;;15.88;3.17;;;;;;;;;;5173487;27;20766;-80
2022/11/07 06:20:23;;;;;;;14.70;3.25;;;;;;;;;;5173314;27;20089;-81
2022/11/07 06:22:50;;;;;;;13.68;3.17;;;;;;;;;;5179819;27;21145;-81
2022/11/07 06:25:18;;;;;;;13.82;3.10;;;;;;;;;;5184678;27;20165;-81
2022/11/07 06:27:45;;;;;;;13.45;3.25;;;;;;;;;;5174145;27;20053;-80
2022/11/07 06:30:11;;;;;;;16.63;2.72;;;;;;;;;;5192313;27;20057;-79
2022/11/07 06:32:42;;;;;;;18.20;3.25;;;;;;;;;;5162860;27;20054;-79
2022/11/07 06:35:10;;;;;;;12.23;3.10;;;;;;;;;;5154465;27;20051;-80
2022/11/07 06:37:36;;;;;;;20.60;2.92;;;;;;;;;;5158286;27;20046;-81
2022/11/07 06:40:02;;;;;;;15.55;2.97;;;;;;;;;;5173660;27;20050;-81
2022/11/07 06:42:29;;;;;;;12.18;2.88;;;;;;;;;;5178756;27;20057;-80
2022/11/07 06:44:55;;;;;;;15.82;2.83;;;;;;;;;;5188446;27;20838;-80
2022/11/07 06:47:21;;;;;;;18.63;2.72;;;;;;;;;;5193462;27;20103;-80
2022/11/07 06:49:48;;;;;;;13.25;2.65;;;;;;;;;;5172460;27;20039;-80
2022/11/07 06:52:15;;;;;;;11.70;2.40;;;;;;;;;;5153484;27;20112;-80
2022/11/07 06:54:42;;;;;;;11.75;2.90;;;;;;;;;;5161613;27;20058;-81
2022/11/07 06:57:09;;;;;;;12.45;2.72;;;;;;;;;;5160136;27;20051;-80
2022/11/07 06:59:35;;;;;;;16.58;3.08;;;;;;;;;;5159450;27;20058;-82
2022/11/07 07:02:02;;;;;;;12.93;2.50;;;;;;;;;;5156218;27;20058;-80
2022/11/07 07:04:29;;;;;;;17.50;3.22;;;;;;;;;;5173171;27;20057;-80
2022/11/07 07:06:55;;;;;;;16.10;3.00;;;;;;;;;;5181094;27;20046;-81
2022/11/07 07:09:21;;;;;;;13.18;3.15;;;;;;;;;;5180026;27;20074;-81
2022/11/07 07:11:48;;;;;;;12.70;2.78;;;;;;;;;;5187792;27;20054;-80
2022/11/07 07:14:14;;;;;;;14.85;2.40;;;;;;;;;;5174224;27;20054;-81
2022/11/07 07:16:40;;;;;;;14.00;2.28;;;;;;;;;;5193639;27;20054;-79
2022/11/07 07:19:07;;;;;;;12.70;3.08;;;;;;;;;;5173989;27;20050;-80
2022/11/07 07:21:33;;;;;;;16.02;3.00;;;;;;;;;;5155947;27;20720;-81
2022/11/07 07:24:00;;;;;;;17.70;3.17;;;;;;;;;;5163322;27;20527;-79
2022/11/07 07:26:33;;;;;;;12.05;3.03;;;;;;;;;;5153103;27;20138;-81
2022/11/07 07:29:03;;;;;;;11.73;3.30;;;;;;;;;;5179999;27;20053;-81
2022/11/07 07:31:40;;;;;;;16.63;3.10;;;;;;;;;;5165102;27;20082;-82
2022/11/07 07:34:07;;;;;;;14.80;2.60;;;;;;;;;;5182125;27;20070;-82
2022/11/07 07:36:37;;;;;;;14.15;3.50;;;;;;;;;;5184991;27;20108;-80
2022/11/07 07:39:10;;;;;;;12.10;2.92;;;;;;;;;;5165536;27;20057;-81
2022/11/07 07:41:40;;;;;;;13.25;3.22;;;;;;;;;;5156105;27;20540;-82
2022/11/07 07:44:11;;;;;;;8.45;2.75;;;;;;;;;;5156032;27;20054;-81
2022/11/07 07:46:45;;;;;;;13.60;3.72;;;;;;;;;;5180949;27;20058;-81
2022/11/07 07:49:15;;;;;;;12.73;3.30;;;;;;;;;;5169321;27;21120;-81
2022/11/07 07:51:42;;;;;;;16.30;3.10;;;;;;;;;;5176247;27;20055;-82
2022/11/07 07:54:10;;;;;;;14.10;3.47;;;;;;;;;;5189662;27;20042;-81
2022/11/07 07:56:37;;;;;;;10.35;3.05;;;;;;;;;;5186669;27;20057;-80
2022/11/07 07:59:05;;;;;;;14.23;3.22;;;;;;;;;;5167173;27;20047;-80
2022/11/07 08:01:35;;;;;;;11.77;3.13;;;;;;;;;;5183288;27;20046;-81
2022/11/07 08:04:03;;;;;;;13.80;2.70;;;;;;;;;;5156936;27;20046;-81
2022/11/07 08:06:31;;;;;;;13.57;3.40;;;;;;;;;;5157168;27;20064;-81
2022/11/07 08:08:58;;;;;;;13.82;3.15;;;;;;;;;;5154817;27;20091;-81
2022/11/07 08:11:31;;;;;;;16.77;3.15;;;;;;;;;;5174271;27;20085;-80
2022/11/07 08:13:58;;;;;;;15.00;4.28;;;;;;;;;;5153247;27;20061;-81
2022/11/07 08:16:27;;;;;;;12.13;2.55;;;;;;;;;;5191947;27;20106;-83
2022/11/07 08:18:54;;;;;;;13.52;2.95;;;;;;;;;;5165627;27;20046;-80
2022/11/07 08:21:23;;;;;;;15.88;3.10;;;;;;;;;;5158762;27;20179;-79
2022/11/07 08:23:53;;;;;;;20.13;3.38;;;;;;;;;;5169985;27;20531;-80
2022/11/07 08:26:25;;;;;;;11.00;2.60;;;;;;;;;;5154130;27;20058;-79
2022/11/07 08:28:58;;;;;;;15.50;2.92;;;;;;;;;;5162653;27;20056;-80
2022/11/07 08:31:28;;;;;;;14.32;3.17;;;;;;;;;;5168939;27;20104;-80
2022/11/07 08:33:57;;;;;;;10.88;2.97;;;;;;;;;;5167561;27;20104;-80
2022/11/07 08:36:25;;;;;;;10.32;3.28;;;;;;;;;;5169636;27;20171;-80
2022/11/07 08:38:55;;;;;;;15.15;3.17;;;;;;;;;;5166356;27;20046;-81
2022/11/07 08:41:22;;;;;;;14.50;2.92;;;;;;;;;;5152747;27;20058;-80
2022/11/07 08:43:55;;;;;;;12.68;2.70;;;;;;;;;;5179596;27;20060;-80
2022/11/07 08:46:27;;;;;;;15.57;2.92;;;;;;;;;;5158389;27;20055;-81
2022/11/07 08:49:09;;;;;;;14.20;2.92;;;;;;;;;;5152449;27;20039;-81
2022/11/07 08:51:39;;;;;;;15.30;3.20;;;;;;;;;;5171326;27;20061;-80
2022/11/07 08:54:16;;;;;;;12.65;2.70;;;;;;;;;;5179972;27;20042;-80
2022/11/07 08:56:44;;;;;;;12.52;2.75;;;;;;;;;;5179190;27;20069;-81
2022/11/07 08:59:14;;;;;;;11.48;2.47;;;;;;;;;;5154954;27;20093;-79
2022/11/07 09:01:45;;;;;;;;;;;;;;;;;;5184348;27;20057;-80
2022/11/07 09:04:35;;;;;;;11.27;2.72;;;;;;;;;;5162898;27;20108;-81
2022/11/07 09:07:05;;;;;;;13.25;3.15;;;;;;;;;;5182566;27;20050;-81
2022/11/07 09:09:32;;;;;;;10.82;2.60;;;;;;;;;;5172727;27;20043;-81
2022/11/07 09:11:59;;;;;;;12.68;2.63;;;;;;;;;;5175993;27;20046;-83
2022/11/07 09:14:32;;;;;;;9.77;1.98;;;;;;;;;;5161655;27;20054;-80
2022/11/07 09:17:04;;;;;;;12.60;2.67;;;;;;;;;;5171948;27;20199;-80
2022/11/07 09:19:35;;;;;;;13.40;2.70;;;;;;;;;;5172195;27;20045;-80
2022/11/07 09:22:16;;;;;;;12.00;2.88;;;;;;;;;;5172963;27;20059;-80
2022/11/07 09:24:49;;;;;;;18.27;3.78;;;;;;;;;;5181758;27;20050;-80
2022/11/07 09:27:21;;;;;;;11.20;3.10;;;;;;;;;;5162706;27;20070;-79
2022/11/07 09:29:52;;;;;;;13.07;2.80;;;;;;;;;;5174488;27;20054;-80
2022/11/07 09:32:28;;;;;;;9.85;2.70;;;;;;;;;;5181760;27;20054;-80
2022/11/07 09:35:19;;;;;;;14.13;3.53;;;;;;;;;;5176494;27;20542;-80
2022/11/07 09:37:56;;;;;;;10.98;2.95;;;;;;;;;;5184933;27;20046;-80
2022/11/07 09:40:41;;;;;;;8.23;2.97;;;;;;;;;;5162053;27;20102;-79
2022/11/07 09:43:27;;;;;;;11.80;2.72;;;;;;;;;;5158334;27;20099;-80
2022/11/07 09:46:02;;;;;;;13.75;2.80;;;;;;;;;;5152127;27;20055;-79
2022/11/07 09:48:32;;;;;;;13.15;3.38;;;;;;;;;;5179055;27;20057;-80
2022/11/07 09:50:58;;;;;;;12.73;3.30;;;;;;;;;;5185141;27;20050;-80
2022/11/07 09:53:34;;;;;;;12.10;3.17;;;;;;;;;;5157826;27;20839;-80
2022/11/07 09:56:05;;;;;;;13.80;4.07;;;;;;;;;;5155166;27;20057;-80
2022/11/07 09:58:34;;;;;;;8.77;2.83;;;;;;;;;;5161357;27;20058;-79
2022/11/07 10:01:05;;;;;;;10.07;3.05;;;;;;;;;;5158175;27;20570;-80
2022/11/07 10:03:33;;;;;;;13.70;3.38;;;;;;;;;;5154014;27;20047;-80
2022/11/07 10:09:06;;;;;;;10.35;3.15;;;;;;;;;;5651068;22;20045;-78
2022/11/07 10:11:32;;;;;;;7.68;3.25;;;;;;;;;;5043962;28;20065;-79
2022/11/07 10:14:08;;;;;;;14.73;3.50;;;;;;;;;;5028389;28;20057;-79
2022/11/07 10:16:46;;;;;;;9.68;3.35;;;;;;;;;;5024199;28;20514;-79
2022/11/07 10:19:40;;;;;;;18.33;3.35;;;;;;;;;;5020939;28;20050;-80
2022/11/07 10:22:25;;;;;;;12.45;3.22;;;;;;;;;;5020562;28;20050;-79
2022/11/07 10:25:04;;;;;;;10.55;3.10;;;;;;;;;;5012960;28;20058;-80
2022/11/07 10:27:37;;;;;;;12.15;3.22;;;;;;;;;;5006756;28;20068;-80
2022/11/07 10:30:17;;;;;;;10.52;2.80;;;;;;;;;;5006425;28;20109;-81
2022/11/07 10:32:51;;;;;;;13.18;3.22;;;;;;;;;;5007549;28;20056;-80
2022/11/07 10:35:31;;;;;;;13.13;3.80;;;;;;;;;;5026579;28;20065;-80
2022/11/07 10:37:59;;;;;;;12.80;3.25;;;;;;;;;;5030427;28;20053;-80
2022/11/07 10:40:29;;;;;;;12.85;3.28;;;;;;;;;;5008742;28;20057;-81
2022/11/07 10:42:56;;;;;;;20.25;3.97;;;;;;;;;;5026325;28;20057;-80
2022/11/07 10:45:23;;;;;;;13.48;2.97;;;;;;;;;;5012388;28;20057;-79
2022/11/07 10:47:59;;;;;;;15.15;3.30;;;;;;;;;;5029885;28;20084;-81
2022/11/07 10:50:27;;;;;;;10.45;2.80;;;;;;;;;;5006423;28;21016;-81
2022/11/07 10:52:57;;;;;;;17.35;3.25;;;;;;;;;;5008487;28;20061;-81
2022/11/07 10:55:25;;;;;;;15.23;3.25;;;;;;;;;;5010347;28;20049;-81
2022/11/07 10:57:53;;;;;;;9.18;2.92;;;;;;;;;;5011296;28;20868;-80
2022/11/07 11:00:21;;;;;;;15.80;3.50;;;;;;;;;;5011162;28;20065;-80
2022/11/07 11:02:48;;;;;;;14.10;4.35;;;;;;;;;;5011347;28;20053;-80
2022/11/07 11:05:29;;;;;;;13.20;3.15;;;;;;;;;;5023509;28;20065;-80
2022/11/07 11:08:06;;;;;;;13.15;2.33;;;;;;;;;;5009813;28;20060;-80
2022/11/07 11:10:36;;;;;;;12.05;2.63;;;;;;;;;;5012091;28;20166;-80
2022/11/07 11:13:03;;;;;;;14.27;2.70;;;;;;;;;;5013577;28;20057;-80
2022/11/07 11:15:29;;;;;;;17.55;3.42;;;;;;;;;;5025119;28;20038;-81
2022/11/07 11:18:02;;;;;;;17.80;3.15;;;;;;;;;;5027211;28;20096;-80
2022/11/07 11:20:47;;;;;;;9.82;2.78;;;;;;;;;;5006404;28;20050;-80
2022/11/07 11:23:18;;;;;;;12.23;2.80;;;;;;;;;;5024587;28;20060;-81
2022/11/07 11:25:46;;;;;;;11.98;2.90;;;;;;;;;;5027727;28;20141;-80
2022/11/07 11:28:39;;;;;;;9.60;2.80;;;;;;;;;;5025297;28;20057;-81
2022/11/07 11:31:09;;;;;;;13.95;2.85;;;;;;;;;;5023552;28;20906;-80
2022/11/07 11:33:36;;;;;;;;;;;;;;;;;;5025984;28;20363;-81
2022/11/07 11:36:07;;;;;;;11.70;2.92;;;;;;;;;;5003205;28;48211;-82
2022/11/07 11:38:38;;;;;;;12.45;3.00;;;;;;;;;;5002042;28;20065;-80
2022/11/07 11:41:17;;;;;;;8.52;2.90;;;;;;;;;;5008880;28;20599;-81
2022/11/07 11:43:49;;;;;;;12.55;3.47;;;;;;;;;;5011595;28;20054;-80
2022/11/07 11:46:21;;;;;;;12.68;2.70;;;;;;;;;;5009622;28;20064;-81
2022/11/07 11:48:54;;;;;;;13.63;3.17;;;;;;;;;;5010970;28;20053;-81
2022/11/07 11:51:33;;;;;;;14.85;3.20;;;;;;;;;;5030143;28;20046;-81
2022/11/07 11:54:00;;;;;;;13.52;3.30;;;;;;;;;;5013776;28;20058;-80
2022/11/07 11:56:58;;;;;;;10.75;2.90;;;;;;;;;;5010625;28;20057;-80
2022/11/07 11:59:36;;;;;;;12.70;3.58;;;;;;;;;;4962922;28;20105;-80
2022/11/07 12:02:21;;;;;;;16.05;3.42;;;;;;;;;;5011979;28;20810;-81
2022/11/07 12:05:01;;;;;;;14.95;3.10;;;;;;;;;;5008640;28;20897;-80
2022/11/07 12:07:36;;;;;;;11.32;2.97;;;;;;;;;;5011953;28;20109;-80
2022/11/07 12:10:10;;;;;;;9.45;2.78;;;;;;;;;;5027779;28;20046;-81
2022/11/07 12:12:52;;;;;;;13.05;3.08;;;;;;;;;;5011911;28;20054;-80
2022/11/07 12:15:41;;;;;;;14.38;3.15;;;;;;;;;;5028729;28;20137;-80
2022/11/07 12:18:14;;;;;;;16.05;3.20;;;;;;;;;;5008014;28;20046;-81
2022/11/07 12:20:59;;;;;;;12.48;2.78;;;;;;;;;;5008441;28;20149;-81
2022/11/07 12:23:25;;;;;;;11.52;3.10;;;;;;;;;;5029408;28;20053;-80
2022/11/07 12:25:57;;;;;;;18.50;3.38;;;;;;;;;;5012187;28;20050;-80
2022/11/07 12:28:31;;;;;;;12.30;2.58;;;;;;;;;;5012695;28;20303;-81
2022/11/07 12:31:19;;;;;;;13.88;3.35;;;;;;;;;;5011165;28;20053;-80
2022/11/07 12:33:45;;;;;;;11.50;2.83;;;;;;;;;;5029527;28;20046;-80
2022/11/07 12:36:21;;;;;;;13.88;3.05;;;;;;;;;;5017264;28;20092;-80
2022/11/07 12:38:47;;;;;;;15.70;3.13;;;;;;;;;;5021264;28;20124;-80
2022/11/07 12:41:19;;;;;;;14.50;3.05;;;;;;;;;;5017920;28;20060;-80
2022/11/07 12:44:00;;;;;;;15.52;3.45;;;;;;;;;;5033333;28;20851;-80
2022/11/07 12:46:39;;;;;;;20.98;3.05;;;;;;;;;;5013268;28;20053;-79
2022/11/07 12:49:24;;;;;;;10.02;2.47;;;;;;;;;;5032777;28;20890;-80
2022/11/07 12:51:57;;;;;;;13.45;2.90;;;;;;;;;;5038658;28;20096;-80
2022/11/07 12:54:36;;;;;;;14.93;2.72;;;;;;;;;;5014371;28;20065;-80
2022/11/07 12:57:05;;;;;;;13.13;3.20;;;;;;;;;;5014138;28;20108;-80
2022/11/07 12:59:31;;;;;;;8.32;2.60;;;;;;;;;;5027730;28;20065;-80
2022/11/07 13:01:58;;;;;;;8.88;2.47;;;;;;;;;;5029830;28;20054;-80
2022/11/07 13:04:40;;;;;;;11.80;2.78;;;;;;;;;;5013071;28;20062;-81
2022/11/07 13:07:27;;;;;;;13.52;3.72;;;;;;;;;;5031271;28;20050;-80
2022/11/07 13:09:58;;;;;;;12.10;2.75;;;;;;;;;;5011608;28;20049;-81
2022/11/07 13:12:28;;;;;;;13.48;3.00;;;;;;;;;;5029710;28;20361;-80
2022/11/07 13:14:55;;;;;;;14.40;2.80;;;;;;;;;;5013824;28;20045;-81
2022/11/07 13:17:23;;;;;;;12.98;2.55;;;;;;;;;;5008212;28;20050;-80
2022/11/07 13:19:56;;;;;;;10.02;2.40;;;;;;;;;;5014002;28;20645;-80
2022/11/07 13:22:29;;;;;;;12.55;3.15;;;;;;;;;;5029575;28;20050;-81
2022/11/07 13:25:11;;;;;;;8.05;2.50;;;;;;;;;;5011772;28;20058;-81
2022/11/07 13:27:43;;;;;;;12.57;2.80;;;;;;;;;;5029994;28;20046;-80
2022/11/07 13:30:13;;;;;;;10.82;2.45;;;;;;;;;;5029080;28;20053;-80
2022/11/07 13:32:40;;;;;;;10.02;2.80;;;;;;;;;;5007279;28;20541;-80
2022/11/07 13:35:07;;;;;;;12.73;3.08;;;;;;;;;;5015880;28;20157;-81
2022/11/07 13:37:35;;;;;;;15.50;2.80;;;;;;;;;;5030659;28;20065;-81
2022/11/07 13:40:14;;;;;;;11.55;2.70;;;;;;;;;;5016958;28;20050;-81
2022/11/07 13:42:42;;;;;;;14.85;3.50;;;;;;;;;;5010720;28;20054;-81
2022/11/07 13:45:23;;;;;;;15.18;2.80;;;;;;;;;;5012398;28;20066;-81
2022/11/07 13:47:53;;;;;;;15.10;3.33;;;;;;;;;;5026299;28;20046;-81
2022/11/07 13:50:22;;;;;;;12.10;3.13;;;;;;;;;;5013652;28;20057;-81
2022/11/07 13:52:51;;;;;;;11.15;3.05;;;;;;;;;;5013235;28;20058;-80
2022/11/07 13:55:21;;;;;;;15.02;2.80;;;;;;;;;;5012738;28;20065;-81
2022/11/07 13:58:00;;;;;;;14.52;3.50;;;;;;;;;;5011462;28;20060;-81
2022/11/07 14:00:27;;;;;;;11.82;2.70;;;;;;;;;;5015597;28;20054;-81
2022/11/07 14:02:55;;;;;;;12.85;2.67;;;;;;;;;;5013520;28;20062;-81
2022/11/07 14:05:26;;;;;;;13.98;2.55;;;;;;;;;;5011655;28;20859;-81
2022/11/07 14:07:59;;;;;;;10.63;2.05;;;;;;;;;;5013117;28;20065;-80
2022/11/07 14:10:29;;;;;;;12.07;2.63;;;;;;;;;;5013015;28;20112;-81
2022/11/07 14:13:02;;;;;;;15.43;2.63;;;;;;;;;;5029989;28;20057;-81
2022/11/07 14:15:29;;;;;;;12.77;2.60;;;;;;;;;;5011152;28;20108;-80
2022/11/07 14:17:55;;;;;;;13.52;2.70;;;;;;;;;;4998038;28;20066;-81
2022/11/07 14:20:22;;;;;;;10.90;3.10;;;;;;;;;;4993530;28;20064;-81
2022/11/07 14:22:50;;;;;;;15.48;2.50;;;;;;;;;;5012286;28;20077;-81
2022/11/07 14:25:20;;;;;;;18.08;2.97;;;;;;;;;;5026535;28;20065;-80
2022/11/07 14:27:46;;;;;;;11.75;2.92;;;;;;;;;;5022258;28;20912;-79
2022/11/07 14:30:16;;;;;;;8.93;2.45;;;;;;;;;;5027878;28;20049;-80
2022/11/07 14:32:43;;;;;;;;;;;;;;;;;;5010163;28;20060;-80
2022/11/07 14:35:09;;;;;;;10.10;2.65;;;;;;;;;;5007620;28;48500;-80
2022/11/07 14:37:35;;;;;;;13.32;3.17;;;;;;;;;;5010750;28;20073;-80
2022/11/07 14:40:04;;;;;;;7.40;2.17;;;;;;;;;;5011524;28;20113;-80
2022/11/07 14:42:30;;;;;;;13.68;3.13;;;;;;;;;;5011244;28;20052;-80
2022/11/07 14:44:57;;;;;;;11.18;2.38;;;;;;;;;;5026831;28;20069;-80
2022/11/07 14:47:27;;;;;;;12.73;2.50;;;;;;;;;;5011126;28;20673;-80
2022/11/07 14:49:54;;;;;;;13.02;2.55;;;;;;;;;;5020478;28;20132;-80
2022/11/07 14:52:25;;;;;;;10.10;2.50;;;;;;;;;;5043532;28;20516;-79
2022/11/07 14:55:04;;;;;;;16.13;2.38;;;;;;;;;;5026355;28;20042;-79
2022/11/07 14:57:32;;;;;;;13.18;2.72;;;;;;;;;;5025227;28;20060;-79
2022/11/07 14:59:58;;;;;;;8.43;2.40;;;;;;;;;;5024995;28;20069;-80
2022/11/07 15:02:29;;;;;;;10.05;2.05;;;;;;;;;;5010956;28;20837;-80
2022/11/07 15:04:56;;;;;;;10.10;2.55;;;;;;;;;;5011469;28;20072;-80